sensor_id;sensor_type;location;lat;lon;timestamp;temperature;humidity
58517;DHT22;44308;50.810;0.284;2022-08-19T00:01:48;19.30;99.90
58517;DHT22;44308;50.810;0.284;2022-08-19T00:04:18;19.30;99.90
58517;DHT22;44308;50.810;0.284;2022-08-19T00:06:46;19.30;99.90
58517;DHT22;44308;50.810;0.284;2022-08-19T00:09:14;19.20;99.90
58517;DHT22;44308;50.810;0.284;2022-08-19T00:11:41;19.20;99.90
58517;DHT22;44308;50.810;0.284;2022-08-19T00:14:09;19.20;99.90
58517;DHT22;44308;50.810;0.284;2022-08-19T00:16:42;19.20;99.90
58517;DHT22;44308;50.810;0.284;2022-08-19T00:19:09;19.20;99.90
58517;DHT22;44308;50.810;0.284;2022-08-19T00:21:35;19.20;99.90
58517;DHT22;44308;50.810;0.284;2022-08-19T00:24:08;19.20;99.90
58517;DHT22;44308;50.810;0.284;2022-08-19T00:26:34;19.20;99.90
58517;DHT22;44308;50.810;0.284;2022-08-19T00:29:00;19.20;99.90
58517;DHT22;44308;50.810;0.284;2022-08-19T00:31:27;19.20;99.90
58517;DHT22;44308;50.810;0.284;2022-08-19T00:33:55;19.20;99.90
58517;DHT22;44308;50.810;0.284;2022-08-19T00:36:21;19.20;99.90
58517;DHT22;44308;50.810;0.284;2022-08-19T00:38:47;19.20;99.90
58517;DHT22;44308;50.810;0.284;2022-08-19T00:41:14;19.20;99.90
58517;DHT22;44308;50.810;0.284;2022-08-19T00:43:40;19.20;99.90
58517;DHT22;44308;50.810;0.284;2022-08-19T00:46:06;19.20;99.90
58517;DHT22;44308;50.810;0.284;2022-08-19T00:48:33;19.20;99.90
58517;DHT22;44308;50.810;0.284;2022-08-19T00:50:59;19.30;99.90
58517;DHT22;44308;50.810;0.284;2022-08-19T00:53:27;19.20;99.90
58517;DHT22;44308;50.810;0.284;2022-08-19T00:55:56;19.20;99.90
58517;DHT22;44308;50.810;0.284;2022-08-19T00:58:27;19.20;99.90
58517;DHT22;44308;50.810;0.284;2022-08-19T01:00:54;19.20;99.90
58517;DHT22;44308;50.810;0.284;2022-08-19T01:03:22;19.20;99.90
58517;DHT22;44308;50.810;0.284;2022-08-19T01:05:50;19.20;99.90
58517;DHT22;44308;50.810;0.284;2022-08-19T01:08:18;19.20;99.90
58517;DHT22;44308;50.810;0.284;2022-08-19T01:10:47;19.20;99.90
58517;DHT22;44308;50.810;0.284;2022-08-19T01:13:15;19.20;99.90
58517;DHT22;44308;50.810;0.284;2022-08-19T01:15:47;19.20;99.90
58517;DHT22;44308;50.810;0.284;2022-08-19T01:18:15;19.20;99.90
58517;DHT22;44308;50.810;0.284;2022-08-19T01:20:42;19.20;99.90
58517;DHT22;44308;50.810;0.284;2022-08-19T01:23:08;19.20;99.90
58517;DHT22;44308;50.810;0.284;2022-08-19T01:25:44;19.20;99.90
58517;DHT22;44308;50.810;0.284;2022-08-19T01:28:23;19.20;99.90
58517;DHT22;44308;50.810;0.284;2022-08-19T01:30:51;19.20;99.90
58517;DHT22;44308;50.810;0.284;2022-08-19T01:33:17;19.20;99.90
58517;DHT22;44308;50.810;0.284;2022-08-19T01:35:45;19.10;99.90
58517;DHT22;44308;50.810;0.284;2022-08-19T01:38:21;19.10;99.90
58517;DHT22;44308;50.810;0.284;2022-08-19T01:40:47;19.10;99.90
58517;DHT22;44308;50.810;0.284;2022-08-19T01:43:12;19.10;99.90
58517;DHT22;44308;50.810;0.284;2022-08-19T01:45:40;19.10;99.90
58517;DHT22;44308;50.810;0.284;2022-08-19T01:48:07;19.10;99.90
58517;DHT22;44308;50.810;0.284;2022-08-19T01:50:34;19.10;99.90
58517;DHT22;44308;50.810;0.284;2022-08-19T01:53:01;19.10;99.90
58517;DHT22;44308;50.810;0.284;2022-08-19T01:55:30;19.10;99.90
58517;DHT22;44308;50.810;0.284;2022-08-19T01:57:58;19.10;99.90
58517;DHT22;44308;50.810;0.284;2022-08-19T02:00:28;19.10;99.90
58517;DHT22;44308;50.810;0.284;2022-08-19T02:02:55;19.10;99.90
58517;DHT22;44308;50.810;0.284;2022-08-19T02:05:23;19.10;99.90
58517;DHT22;44308;50.810;0.284;2022-08-19T02:07:49;19.10;99.90
58517;DHT22;44308;50.810;0.284;2022-08-19T02:10:19;19.10;99.90
58517;DHT22;44308;50.810;0.284;2022-08-19T02:12:45;19.10;99.90
58517;DHT22;44308;50.810;0.284;2022-08-19T02:15:13;19.10;99.90
58517;DHT22;44308;50.810;0.284;2022-08-19T02:17:40;19.10;99.90
58517;DHT22;44308;50.810;0.284;2022-08-19T02:20:06;19.10;99.90
58517;DHT22;44308;50.810;0.284;2022-08-19T02:22:33;19.10;99.90
58517;DHT22;44308;50.810;0.284;2022-08-19T02:24:59;19.10;99.90
58517;DHT22;44308;50.810;0.284;2022-08-19T02:27:25;19.00;99.90
58517;DHT22;44308;50.810;0.284;2022-08-19T02:29:51;19.10;99.90
58517;DHT22;44308;50.810;0.284;2022-08-19T02:32:18;19.10;99.90
58517;DHT22;44308;50.810;0.284;2022-08-19T02:34:48;19.10;99.90
58517;DHT22;44308;50.810;0.284;2022-08-19T02:37:14;19.00;99.90
58517;DHT22;44308;50.810;0.284;2022-08-19T02:39:59;19.00;99.90
58517;DHT22;44308;50.810;0.284;2022-08-19T02:42:25;19.00;99.90
58517;DHT22;44308;50.810;0.284;2022-08-19T02:44:55;19.00;99.90
58517;DHT22;44308;50.810;0.284;2022-08-19T02:47:21;19.00;99.90
58517;DHT22;44308;50.810;0.284;2022-08-19T02:49:47;19.00;99.90
58517;DHT22;44308;50.810;0.284;2022-08-19T02:52:16;19.00;99.90
58517;DHT22;44308;50.810;0.284;2022-08-19T02:54:41;19.00;99.90
58517;DHT22;44308;50.810;0.284;2022-08-19T02:57:07;19.00;99.90
58517;DHT22;44308;50.810;0.284;2022-08-19T02:59:33;19.00;99.90
58517;DHT22;44308;50.810;0.284;2022-08-19T03:01:59;19.00;99.90
58517;DHT22;44308;50.810;0.284;2022-08-19T03:04:25;19.00;99.90
58517;DHT22;44308;50.810;0.284;2022-08-19T03:06:51;19.10;99.90
58517;DHT22;44308;50.810;0.284;2022-08-19T03:09:19;19.00;99.90
58517;DHT22;44308;50.810;0.284;2022-08-19T03:11:45;19.10;99.90
58517;DHT22;44308;50.810;0.284;2022-08-19T03:14:31;19.10;99.90
58517;DHT22;44308;50.810;0.284;2022-08-19T03:16:57;19.10;99.90
58517;DHT22;44308;50.810;0.284;2022-08-19T03:19:23;19.00;99.90
58517;DHT22;44308;50.810;0.284;2022-08-19T03:21:50;19.00;99.90
58517;DHT22;44308;50.810;0.284;2022-08-19T03:24:18;19.00;99.90
58517;DHT22;44308;50.810;0.284;2022-08-19T03:26:47;19.00;99.90
58517;DHT22;44308;50.810;0.284;2022-08-19T03:29:14;19.10;99.90
58517;DHT22;44308;50.810;0.284;2022-08-19T03:31:41;19.00;99.90
58517;DHT22;44308;50.810;0.284;2022-08-19T03:34:13;19.00;99.90
58517;DHT22;44308;50.810;0.284;2022-08-19T03:36:39;19.00;99.90
58517;DHT22;44308;50.810;0.284;2022-08-19T03:39:05;19.00;99.90
58517;DHT22;44308;50.810;0.284;2022-08-19T03:41:35;19.00;99.90
58517;DHT22;44308;50.810;0.284;2022-08-19T03:44:02;19.00;99.90
58517;DHT22;44308;50.810;0.284;2022-08-19T03:46:31;19.00;99.90
58517;DHT22;44308;50.810;0.284;2022-08-19T03:48:59;19.00;99.90
58517;DHT22;44308;50.810;0.284;2022-08-19T03:51:32;19.00;99.90
58517;DHT22;44308;50.810;0.284;2022-08-19T03:54:02;19.00;99.90
58517;DHT22;44308;50.810;0.284;2022-08-19T03:56:29;19.00;99.90
58517;DHT22;44308;50.810;0.284;2022-08-19T03:58:57;19.00;99.90
58517;DHT22;44308;50.810;0.284;2022-08-19T04:01:26;19.00;99.90
58517;DHT22;44308;50.810;0.284;2022-08-19T04:03:55;19.00;99.90
58517;DHT22;44308;50.810;0.284;2022-08-19T04:06:23;19.00;99.90
58517;DHT22;44308;50.810;0.284;2022-08-19T04:08:51;19.00;99.90
58517;DHT22;44308;50.810;0.284;2022-08-19T04:11:20;19.00;99.90
58517;DHT22;44308;50.810;0.284;2022-08-19T04:13:47;19.00;99.90
58517;DHT22;44308;50.810;0.284;2022-08-19T04:16:13;19.00;99.90
58517;DHT22;44308;50.810;0.284;2022-08-19T04:18:39;19.00;99.90
58517;DHT22;44308;50.810;0.284;2022-08-19T04:21:07;19.00;99.90
58517;DHT22;44308;50.810;0.284;2022-08-19T04:23:52;19.00;99.90
58517;DHT22;44308;50.810;0.284;2022-08-19T04:26:21;19.00;99.90
58517;DHT22;44308;50.810;0.284;2022-08-19T04:28:47;19.00;99.90
58517;DHT22;44308;50.810;0.284;2022-08-19T04:31:16;19.10;99.90
58517;DHT22;44308;50.810;0.284;2022-08-19T04:33:42;19.10;99.90
58517;DHT22;44308;50.810;0.284;2022-08-19T04:36:18;19.10;99.90
58517;DHT22;44308;50.810;0.284;2022-08-19T04:38:47;19.10;99.90
58517;DHT22;44308;50.810;0.284;2022-08-19T04:41:13;19.10;99.90
58517;DHT22;44308;50.810;0.284;2022-08-19T04:44:16;19.10;99.90
58517;DHT22;44308;50.810;0.284;2022-08-19T04:46:46;19.10;99.90
58517;DHT22;44308;50.810;0.284;2022-08-19T04:49:13;19.10;99.90
58517;DHT22;44308;50.810;0.284;2022-08-19T04:51:41;19.10;99.90
58517;DHT22;44308;50.810;0.284;2022-08-19T04:54:10;19.10;99.90
58517;DHT22;44308;50.810;0.284;2022-08-19T04:56:35;19.10;99.90
58517;DHT22;44308;50.810;0.284;2022-08-19T04:59:01;19.10;99.90
58517;DHT22;44308;50.810;0.284;2022-08-19T05:01:31;19.10;99.90
58517;DHT22;44308;50.810;0.284;2022-08-19T05:04:01;19.20;99.90
58517;DHT22;44308;50.810;0.284;2022-08-19T05:06:33;19.20;99.90
58517;DHT22;44308;50.810;0.284;2022-08-19T05:09:03;19.20;99.90
58517;DHT22;44308;50.810;0.284;2022-08-19T05:11:32;19.20;99.90
58517;DHT22;44308;50.810;0.284;2022-08-19T05:13:59;19.20;99.90
58517;DHT22;44308;50.810;0.284;2022-08-19T05:16:26;19.10;99.90
58517;DHT22;44308;50.810;0.284;2022-08-19T05:18:52;19.20;99.90
58517;DHT22;44308;50.810;0.284;2022-08-19T05:21:37;19.20;99.90
58517;DHT22;44308;50.810;0.284;2022-08-19T05:24:22;19.20;99.90
58517;DHT22;44308;50.810;0.284;2022-08-19T05:26:49;19.20;99.90
58517;DHT22;44308;50.810;0.284;2022-08-19T05:29:18;19.20;99.90
58517;DHT22;44308;50.810;0.284;2022-08-19T05:31:45;19.20;99.90
58517;DHT22;44308;50.810;0.284;2022-08-19T05:34:12;19.30;99.90
58517;DHT22;44308;50.810;0.284;2022-08-19T05:36:41;19.30;99.90
58517;DHT22;44308;50.810;0.284;2022-08-19T05:39:12;19.30;99.90
58517;DHT22;44308;50.810;0.284;2022-08-19T05:41:49;19.40;99.90
58517;DHT22;44308;50.810;0.284;2022-08-19T05:44:17;19.40;99.90
58517;DHT22;44308;50.810;0.284;2022-08-19T05:46:44;19.40;99.90
58517;DHT22;44308;50.810;0.284;2022-08-19T05:49:13;19.40;99.90
58517;DHT22;44308;50.810;0.284;2022-08-19T05:51:38;19.40;99.90
58517;DHT22;44308;50.810;0.284;2022-08-19T05:54:05;19.40;99.90
58517;DHT22;44308;50.810;0.284;2022-08-19T05:56:33;19.40;99.90
58517;DHT22;44308;50.810;0.284;2022-08-19T05:59:02;19.40;99.90
58517;DHT22;44308;50.810;0.284;2022-08-19T06:01:29;19.40;99.90
58517;DHT22;44308;50.810;0.284;2022-08-19T06:03:57;19.50;99.90
58517;DHT22;44308;50.810;0.284;2022-08-19T06:06:23;19.50;99.90
58517;DHT22;44308;50.810;0.284;2022-08-19T06:08:48;19.50;99.90
58517;DHT22;44308;50.810;0.284;2022-08-19T06:11:35;19.50;99.90
58517;DHT22;44308;50.810;0.284;2022-08-19T06:14:09;19.60;99.90
58517;DHT22;44308;50.810;0.284;2022-08-19T06:16:37;19.70;99.90
58517;DHT22;44308;50.810;0.284;2022-08-19T06:19:05;19.80;99.90
58517;DHT22;44308;50.810;0.284;2022-08-19T06:21:33;19.90;99.90
58517;DHT22;44308;50.810;0.284;2022-08-19T06:23:59;20.00;99.90
58517;DHT22;44308;50.810;0.284;2022-08-19T06:26:26;20.00;99.90
58517;DHT22;44308;50.810;0.284;2022-08-19T06:28:53;20.00;99.90
58517;DHT22;44308;50.810;0.284;2022-08-19T06:31:24;20.00;99.90
58517;DHT22;44308;50.810;0.284;2022-08-19T06:33:50;20.10;99.90
58517;DHT22;44308;50.810;0.284;2022-08-19T06:38:46;20.20;99.90
58517;DHT22;44308;50.810;0.284;2022-08-19T06:41:12;20.20;99.90
58517;DHT22;44308;50.810;0.284;2022-08-19T06:43:37;20.30;99.90
58517;DHT22;44308;50.810;0.284;2022-08-19T06:46:03;20.40;99.90
58517;DHT22;44308;50.810;0.284;2022-08-19T06:48:36;20.40;99.90
58517;DHT22;44308;50.810;0.284;2022-08-19T06:51:01;20.50;99.90
58517;DHT22;44308;50.810;0.284;2022-08-19T06:57:10;20.60;99.90
58517;DHT22;44308;50.810;0.284;2022-08-19T06:59:40;20.70;99.90
58517;DHT22;44308;50.810;0.284;2022-08-19T07:02:06;20.70;99.90
58517;DHT22;44308;50.810;0.284;2022-08-19T07:04:35;20.70;99.90
58517;DHT22;44308;50.810;0.284;2022-08-19T07:07:08;20.80;99.90
58517;DHT22;44308;50.810;0.284;2022-08-19T07:09:37;20.80;99.90
58517;DHT22;44308;50.810;0.284;2022-08-19T07:12:06;20.80;99.90
58517;DHT22;44308;50.810;0.284;2022-08-19T07:14:33;20.90;99.90
58517;DHT22;44308;50.810;0.284;2022-08-19T07:17:05;21.00;99.90
58517;DHT22;44308;50.810;0.284;2022-08-19T07:19:31;21.00;99.90
58517;DHT22;44308;50.810;0.284;2022-08-19T07:21:58;21.00;99.90
58517;DHT22;44308;50.810;0.284;2022-08-19T07:24:45;20.90;99.90
58517;DHT22;44308;50.810;0.284;2022-08-19T07:27:10;20.80;99.90
58517;DHT22;44308;50.810;0.284;2022-08-19T07:29:39;20.70;99.90
58517;DHT22;44308;50.810;0.284;2022-08-19T07:32:05;20.80;99.90
58517;DHT22;44308;50.810;0.284;2022-08-19T07:34:32;20.80;99.90
58517;DHT22;44308;50.810;0.284;2022-08-19T07:37:05;20.90;99.90
58517;DHT22;44308;50.810;0.284;2022-08-19T07:39:33;21.10;99.90
58517;DHT22;44308;50.810;0.284;2022-08-19T07:42:01;21.10;99.90
58517;DHT22;44308;50.810;0.284;2022-08-19T07:44:27;21.10;99.90
58517;DHT22;44308;50.810;0.284;2022-08-19T07:46:55;21.20;99.90
58517;DHT22;44308;50.810;0.284;2022-08-19T07:49:21;21.20;99.90
58517;DHT22;44308;50.810;0.284;2022-08-19T07:51:54;21.30;99.90
58517;DHT22;44308;50.810;0.284;2022-08-19T07:54:22;21.30;99.90
58517;DHT22;44308;50.810;0.284;2022-08-19T07:56:48;21.30;99.90
58517;DHT22;44308;50.810;0.284;2022-08-19T07:59:15;21.30;99.90
58517;DHT22;44308;50.810;0.284;2022-08-19T08:01:43;21.30;99.90
58517;DHT22;44308;50.810;0.284;2022-08-19T08:04:10;21.20;99.90
58517;DHT22;44308;50.810;0.284;2022-08-19T08:06:54;21.20;99.90
58517;DHT22;44308;50.810;0.284;2022-08-19T08:09:41;21.10;99.90
58517;DHT22;44308;50.810;0.284;2022-08-19T08:12:11;21.10;99.90
58517;DHT22;44308;50.810;0.284;2022-08-19T08:14:50;21.10;99.90
58517;DHT22;44308;50.810;0.284;2022-08-19T08:17:18;21.10;99.90
58517;DHT22;44308;50.810;0.284;2022-08-19T08:19:45;21.10;99.90
58517;DHT22;44308;50.810;0.284;2022-08-19T08:22:14;21.10;99.90
58517;DHT22;44308;50.810;0.284;2022-08-19T08:25:08;21.00;99.90
58517;DHT22;44308;50.810;0.284;2022-08-19T08:27:42;20.90;99.90
58517;DHT22;44308;50.810;0.284;2022-08-19T08:30:17;20.90;99.90
58517;DHT22;44308;50.810;0.284;2022-08-19T08:32:43;20.90;99.90
58517;DHT22;44308;50.810;0.284;2022-08-19T08:35:13;21.00;99.90
58517;DHT22;44308;50.810;0.284;2022-08-19T08:37:39;21.60;99.90
58517;DHT22;44308;50.810;0.284;2022-08-19T08:40:56;21.90;99.90
58517;DHT22;44308;50.810;0.284;2022-08-19T08:45:59;22.20;99.90
58517;DHT22;44308;50.810;0.284;2022-08-19T08:48:52;22.40;99.90
58517;DHT22;44308;50.810;0.284;2022-08-19T08:51:26;22.60;99.90
58517;DHT22;44308;50.810;0.284;2022-08-19T08:53:54;23.00;99.90
58517;DHT22;44308;50.810;0.284;2022-08-19T08:56:21;23.50;99.90
58517;DHT22;44308;50.810;0.284;2022-08-19T09:01:43;23.20;99.90
58517;DHT22;44308;50.810;0.284;2022-08-19T09:04:12;22.70;99.90
58517;DHT22;44308;50.810;0.284;2022-08-19T09:06:48;22.60;99.90
58517;DHT22;44308;50.810;0.284;2022-08-19T09:09:32;22.30;99.90
58517;DHT22;44308;50.810;0.284;2022-08-19T09:12:05;22.30;99.90
58517;DHT22;44308;50.810;0.284;2022-08-19T09:14:40;22.40;99.90
58517;DHT22;44308;50.810;0.284;2022-08-19T09:17:11;22.50;99.90
58517;DHT22;44308;50.810;0.284;2022-08-19T09:19:58;22.50;99.90
58517;DHT22;44308;50.810;0.284;2022-08-19T09:22:30;22.60;99.90
58517;DHT22;44308;50.810;0.284;2022-08-19T09:24:57;22.70;99.90
58517;DHT22;44308;50.810;0.284;2022-08-19T09:27:24;22.60;99.90
58517;DHT22;44308;50.810;0.284;2022-08-19T09:29:51;22.50;99.90
58517;DHT22;44308;50.810;0.284;2022-08-19T09:32:17;22.60;99.90
58517;DHT22;44308;50.810;0.284;2022-08-19T09:34:43;22.60;99.90
58517;DHT22;44308;50.810;0.284;2022-08-19T09:37:09;22.70;99.90
58517;DHT22;44308;50.810;0.284;2022-08-19T09:39:35;22.50;99.90
58517;DHT22;44308;50.810;0.284;2022-08-19T09:42:01;22.40;99.90
58517;DHT22;44308;50.810;0.284;2022-08-19T09:44:29;22.40;99.90
58517;DHT22;44308;50.810;0.284;2022-08-19T09:46:54;22.40;99.90
58517;DHT22;44308;50.810;0.284;2022-08-19T09:49:21;22.30;99.90
58517;DHT22;44308;50.810;0.284;2022-08-19T09:51:51;22.50;99.90
58517;DHT22;44308;50.810;0.284;2022-08-19T09:54:19;23.20;99.90
58517;DHT22;44308;50.810;0.284;2022-08-19T09:56:45;23.50;99.90
58517;DHT22;44308;50.810;0.284;2022-08-19T09:59:11;23.50;99.90
58517;DHT22;44308;50.810;0.284;2022-08-19T10:01:38;23.30;99.90
58517;DHT22;44308;50.810;0.284;2022-08-19T10:04:05;23.30;99.90
58517;DHT22;44308;50.810;0.284;2022-08-19T10:06:36;23.60;99.90
58517;DHT22;44308;50.810;0.284;2022-08-19T10:09:04;23.50;99.90
58517;DHT22;44308;50.810;0.284;2022-08-19T10:11:32;23.40;99.90
58517;DHT22;44308;50.810;0.284;2022-08-19T10:13:58;23.20;99.90
58517;DHT22;44308;50.810;0.284;2022-08-19T10:16:25;23.30;99.90
58517;DHT22;44308;50.810;0.284;2022-08-19T10:18:52;23.60;99.90
58517;DHT22;44308;50.810;0.284;2022-08-19T10:21:24;23.90;99.90
58517;DHT22;44308;50.810;0.284;2022-08-19T10:23:53;24.00;99.90
58517;DHT22;44308;50.810;0.284;2022-08-19T10:26:23;24.00;99.90
58517;DHT22;44308;50.810;0.284;2022-08-19T10:28:50;24.10;99.90
58517;DHT22;44308;50.810;0.284;2022-08-19T10:31:19;23.90;99.90
58517;DHT22;44308;50.810;0.284;2022-08-19T10:33:47;24.00;99.90
58517;DHT22;44308;50.810;0.284;2022-08-19T10:36:20;23.90;99.90
58517;DHT22;44308;50.810;0.284;2022-08-19T10:38:48;23.80;99.90
58517;DHT22;44308;50.810;0.284;2022-08-19T10:41:19;23.80;99.90
58517;DHT22;44308;50.810;0.284;2022-08-19T10:43:52;23.70;99.90
58517;DHT22;44308;50.810;0.284;2022-08-19T10:46:24;23.80;99.90
58517;DHT22;44308;50.810;0.284;2022-08-19T10:48:50;23.90;99.90
58517;DHT22;44308;50.810;0.284;2022-08-19T10:51:16;24.00;99.90
58517;DHT22;44308;50.810;0.284;2022-08-19T10:54:02;23.60;99.90
58517;DHT22;44308;50.810;0.284;2022-08-19T10:56:29;23.50;99.90
58517;DHT22;44308;50.810;0.284;2022-08-19T10:59:13;23.40;99.90
58517;DHT22;44308;50.810;0.284;2022-08-19T11:01:44;23.50;99.90
58517;DHT22;44308;50.810;0.284;2022-08-19T11:07:34;23.50;99.90
58517;DHT22;44308;50.810;0.284;2022-08-19T11:10:00;23.70;99.90
58517;DHT22;44308;50.810;0.284;2022-08-19T11:12:27;23.60;99.90
58517;DHT22;44308;50.810;0.284;2022-08-19T11:14:53;23.80;99.90
58517;DHT22;44308;50.810;0.284;2022-08-19T11:17:20;24.30;99.90
58517;DHT22;44308;50.810;0.284;2022-08-19T11:19:49;24.60;99.90
58517;DHT22;44308;50.810;0.284;2022-08-19T11:22:15;24.90;99.90
58517;DHT22;44308;50.810;0.284;2022-08-19T11:24:41;24.80;99.90
58517;DHT22;44308;50.810;0.284;2022-08-19T11:27:08;24.40;99.90
58517;DHT22;44308;50.810;0.284;2022-08-19T11:29:40;24.00;99.90
58517;DHT22;44308;50.810;0.284;2022-08-19T11:32:08;23.50;99.90
58517;DHT22;44308;50.810;0.284;2022-08-19T11:34:35;23.30;99.90
58517;DHT22;44308;50.810;0.284;2022-08-19T11:37:01;23.20;99.90
58517;DHT22;44308;50.810;0.284;2022-08-19T11:39:30;23.10;99.90
58517;DHT22;44308;50.810;0.284;2022-08-19T11:41:58;22.70;99.90
58517;DHT22;44308;50.810;0.284;2022-08-19T11:44:24;22.50;99.90
58517;DHT22;44308;50.810;0.284;2022-08-19T11:46:51;22.30;99.90
58517;DHT22;44308;50.810;0.284;2022-08-19T11:49:18;22.20;99.90
58517;DHT22;44308;50.810;0.284;2022-08-19T11:51:45;22.10;99.90
58517;DHT22;44308;50.810;0.284;2022-08-19T11:54:14;22.10;99.90
58517;DHT22;44308;50.810;0.284;2022-08-19T11:56:41;22.20;99.90
58517;DHT22;44308;50.810;0.284;2022-08-19T11:59:11;22.10;99.90
58517;DHT22;44308;50.810;0.284;2022-08-19T12:01:37;22.20;99.90
58517;DHT22;44308;50.810;0.284;2022-08-19T12:04:05;22.00;99.90
58517;DHT22;44308;50.810;0.284;2022-08-19T12:06:32;21.90;99.90
58517;DHT22;44308;50.810;0.284;2022-08-19T12:09:03;21.80;99.90
58517;DHT22;44308;50.810;0.284;2022-08-19T12:11:29;21.80;99.90
58517;DHT22;44308;50.810;0.284;2022-08-19T12:13:57;21.90;99.90
58517;DHT22;44308;50.810;0.284;2022-08-19T12:16:29;22.00;99.90
58517;DHT22;44308;50.810;0.284;2022-08-19T12:18:55;22.10;99.90
58517;DHT22;44308;50.810;0.284;2022-08-19T12:21:26;22.00;99.90
58517;DHT22;44308;50.810;0.284;2022-08-19T12:23:58;22.10;99.90
58517;DHT22;44308;50.810;0.284;2022-08-19T12:26:25;22.30;99.90
58517;DHT22;44308;50.810;0.284;2022-08-19T12:28:51;22.50;99.90
58517;DHT22;44308;50.810;0.284;2022-08-19T12:31:17;22.60;99.90
58517;DHT22;44308;50.810;0.284;2022-08-19T12:33:45;22.80;99.90
58517;DHT22;44308;50.810;0.284;2022-08-19T12:36:13;23.20;99.90
58517;DHT22;44308;50.810;0.284;2022-08-19T12:38:40;23.30;99.90
58517;DHT22;44308;50.810;0.284;2022-08-19T12:41:07;23.30;99.90
58517;DHT22;44308;50.810;0.284;2022-08-19T12:43:35;23.20;99.90
58517;DHT22;44308;50.810;0.284;2022-08-19T12:46:01;23.30;99.90
58517;DHT22;44308;50.810;0.284;2022-08-19T12:48:27;23.30;99.90
58517;DHT22;44308;50.810;0.284;2022-08-19T12:50:54;23.50;99.90
58517;DHT22;44308;50.810;0.284;2022-08-19T12:53:21;23.40;99.90
58517;DHT22;44308;50.810;0.284;2022-08-19T12:55:47;23.50;99.90
58517;DHT22;44308;50.810;0.284;2022-08-19T12:58:13;23.50;99.90
58517;DHT22;44308;50.810;0.284;2022-08-19T13:00:38;23.50;99.90
58517;DHT22;44308;50.810;0.284;2022-08-19T13:03:04;23.80;99.90
58517;DHT22;44308;50.810;0.284;2022-08-19T13:05:50;23.90;99.90
58517;DHT22;44308;50.810;0.284;2022-08-19T13:08:15;23.30;99.90
58517;DHT22;44308;50.810;0.284;2022-08-19T13:10:42;23.00;99.90
58517;DHT22;44308;50.810;0.284;2022-08-19T13:13:08;22.80;99.90
58517;DHT22;44308;50.810;0.284;2022-08-19T13:15:38;22.70;99.90
58517;DHT22;44308;50.810;0.284;2022-08-19T13:18:07;22.40;99.90
58517;DHT22;44308;50.810;0.284;2022-08-19T13:20:35;22.30;99.90
58517;DHT22;44308;50.810;0.284;2022-08-19T13:23:01;22.10;99.90
58517;DHT22;44308;50.810;0.284;2022-08-19T13:25:27;22.10;99.90
58517;DHT22;44308;50.810;0.284;2022-08-19T13:27:55;22.60;99.90
58517;DHT22;44308;50.810;0.284;2022-08-19T13:30:21;22.90;99.90
58517;DHT22;44308;50.810;0.284;2022-08-19T13:33:07;23.00;99.90
58517;DHT22;44308;50.810;0.284;2022-08-19T13:35:41;23.10;99.90
58517;DHT22;44308;50.810;0.284;2022-08-19T13:38:07;23.20;99.90
58517;DHT22;44308;50.810;0.284;2022-08-19T13:40:33;23.60;99.90
58517;DHT22;44308;50.810;0.284;2022-08-19T13:43:01;23.90;99.90
58517;DHT22;44308;50.810;0.284;2022-08-19T13:45:29;24.20;99.90
58517;DHT22;44308;50.810;0.284;2022-08-19T13:47:56;24.50;99.90
58517;DHT22;44308;50.810;0.284;2022-08-19T13:50:25;24.90;99.90
58517;DHT22;44308;50.810;0.284;2022-08-19T13:52:52;24.80;99.90
58517;DHT22;44308;50.810;0.284;2022-08-19T13:55:18;24.80;99.90
58517;DHT22;44308;50.810;0.284;2022-08-19T13:57:45;24.60;99.90
58517;DHT22;44308;50.810;0.284;2022-08-19T14:00:17;24.60;99.90
58517;DHT22;44308;50.810;0.284;2022-08-19T14:02:44;24.60;99.90
58517;DHT22;44308;50.810;0.284;2022-08-19T14:08:33;24.40;99.90
58517;DHT22;44308;50.810;0.284;2022-08-19T14:10:59;24.50;99.90
58517;DHT22;44308;50.810;0.284;2022-08-19T14:13:25;24.50;99.90
58517;DHT22;44308;50.810;0.284;2022-08-19T14:15:51;24.60;99.90
58517;DHT22;44308;50.810;0.284;2022-08-19T14:18:18;24.60;99.90
58517;DHT22;44308;50.810;0.284;2022-08-19T14:20:44;24.60;99.90
58517;DHT22;44308;50.810;0.284;2022-08-19T14:23:10;24.40;99.90
58517;DHT22;44308;50.810;0.284;2022-08-19T14:25:40;24.40;99.90
58517;DHT22;44308;50.810;0.284;2022-08-19T14:28:06;24.90;99.90
58517;DHT22;44308;50.810;0.284;2022-08-19T14:30:34;25.10;99.90
58517;DHT22;44308;50.810;0.284;2022-08-19T14:33:03;25.00;99.90
58517;DHT22;44308;50.810;0.284;2022-08-19T14:35:32;24.80;99.90
58517;DHT22;44308;50.810;0.284;2022-08-19T14:38:05;24.70;99.90
58517;DHT22;44308;50.810;0.284;2022-08-19T14:40:32;24.80;99.90
58517;DHT22;44308;50.810;0.284;2022-08-19T14:43:00;24.90;99.90
58517;DHT22;44308;50.810;0.284;2022-08-19T14:45:32;24.90;99.90
58517;DHT22;44308;50.810;0.284;2022-08-19T14:47:58;24.80;99.90
58517;DHT22;44308;50.810;0.284;2022-08-19T14:50:28;24.80;99.90
58517;DHT22;44308;50.810;0.284;2022-08-19T14:53:03;24.50;99.90
58517;DHT22;44308;50.810;0.284;2022-08-19T14:55:49;24.40;99.90
58517;DHT22;44308;50.810;0.284;2022-08-19T14:58:15;24.20;99.90
58517;DHT22;44308;50.810;0.284;2022-08-19T15:00:41;24.00;99.90
58517;DHT22;44308;50.810;0.284;2022-08-19T15:03:07;24.20;99.90
58517;DHT22;44308;50.810;0.284;2022-08-19T15:05:34;24.60;99.90
58517;DHT22;44308;50.810;0.284;2022-08-19T15:08:04;24.90;99.90
58517;DHT22;44308;50.810;0.284;2022-08-19T15:10:35;25.30;99.90
58517;DHT22;44308;50.810;0.284;2022-08-19T15:13:01;25.20;99.90
58517;DHT22;44308;50.810;0.284;2022-08-19T15:15:27;25.10;99.90
58517;DHT22;44308;50.810;0.284;2022-08-19T15:17:53;24.90;99.90
58517;DHT22;44308;50.810;0.284;2022-08-19T15:20:20;25.00;99.90
58517;DHT22;44308;50.810;0.284;2022-08-19T15:22:48;25.10;99.90
58517;DHT22;44308;50.810;0.284;2022-08-19T15:25:18;25.00;99.90
58517;DHT22;44308;50.810;0.284;2022-08-19T15:27:44;24.70;99.90
58517;DHT22;44308;50.810;0.284;2022-08-19T15:30:11;24.80;99.90
58517;DHT22;44308;50.810;0.284;2022-08-19T15:32:37;24.80;99.90
58517;DHT22;44308;50.810;0.284;2022-08-19T15:35:06;24.90;99.90
58517;DHT22;44308;50.810;0.284;2022-08-19T15:37:32;24.90;99.90
58517;DHT22;44308;50.810;0.284;2022-08-19T15:39:58;24.90;99.90
58517;DHT22;44308;50.810;0.284;2022-08-19T15:42:24;24.50;99.90
58517;DHT22;44308;50.810;0.284;2022-08-19T15:44:51;24.40;99.90
58517;DHT22;44308;50.810;0.284;2022-08-19T15:47:17;24.50;99.90
58517;DHT22;44308;50.810;0.284;2022-08-19T15:49:45;24.20;99.90
58517;DHT22;44308;50.810;0.284;2022-08-19T15:52:11;23.80;99.90
58517;DHT22;44308;50.810;0.284;2022-08-19T15:57:45;23.60;99.90
58517;DHT22;44308;50.810;0.284;2022-08-19T16:00:30;23.60;99.90
58517;DHT22;44308;50.810;0.284;2022-08-19T16:03:14;23.50;99.90